createdAt,value
2022-11-16T00:00:24.433Z,5.50
2022-11-16T00:02:53.060Z,5.52
2022-11-16T00:05:26.994Z,5.50
2022-11-16T00:07:56.907Z,5.45
2022-11-16T00:10:25.342Z,5.41
2022-11-16T00:12:53.699Z,5.40
2022-11-16T00:15:22.230Z,5.37
2022-11-16T00:17:51.917Z,5.35
2022-11-16T00:20:20.244Z,5.35
2022-11-16T00:22:48.540Z,5.32
2022-11-16T00:25:17.037Z,5.33
2022-11-16T00:27:45.761Z,5.31
2022-11-16T00:30:14.747Z,5.27
2022-11-16T00:32:43.085Z,5.22
2022-11-16T00:35:12.918Z,5.17
2022-11-16T00:37:41.220Z,5.12
2022-11-16T00:40:10.795Z,5.13
2022-11-16T00:42:39.136Z,5.16
2022-11-16T00:45:08.438Z,5.17
2022-11-16T00:47:36.824Z,5.13
2022-11-16T00:50:05.940Z,5.09
2022-11-16T00:52:35.658Z,5.05
2022-11-16T00:55:04.004Z,5.03
2022-11-16T00:57:32.323Z,5.02
2022-11-16T01:00:00.655Z,5.04
2022-11-16T01:02:29.302Z,5.04
2022-11-16T01:04:57.681Z,5.03
2022-11-16T01:07:26.106Z,5.02
2022-11-16T01:09:55.804Z,5.01
2022-11-16T01:12:23.192Z,4.96
2022-11-16T01:14:51.539Z,4.95
2022-11-16T01:17:19.909Z,4.96
2022-11-16T01:19:48.195Z,4.96
2022-11-16T01:22:16.528Z,4.96
2022-11-16T01:24:46.666Z,4.96
2022-11-16T01:27:16.399Z,5.00
2022-11-16T01:29:45.298Z,4.99
2022-11-16T01:32:13.656Z,4.99
2022-11-16T01:34:42.020Z,4.99
2022-11-16T01:37:10.318Z,4.95
2022-11-16T01:39:38.921Z,4.96
2022-11-16T01:42:07.413Z,4.99
2022-11-16T01:45:06.115Z,4.99
2022-11-16T01:47:34.872Z,5.00
2022-11-16T01:50:09.877Z,5.03
2022-11-16T01:52:45.312Z,5.05
2022-11-16T01:55:14.101Z,5.05
2022-11-16T01:57:44.762Z,5.07
2022-11-16T02:00:16.196Z,5.06
2022-11-16T02:02:45.472Z,5.04
2022-11-16T02:05:18.319Z,5.01
2022-11-16T02:08:18.486Z,4.98
2022-11-16T02:11:04.149Z,4.96
2022-11-16T02:13:43.384Z,4.89
2022-11-16T02:16:24.113Z,4.87
2022-11-16T02:19:00.108Z,4.80
2022-11-16T02:21:38.042Z,4.74
2022-11-16T02:24:41.310Z,4.77
2022-11-16T02:27:40.860Z,4.78
2022-11-16T02:30:10.841Z,4.79
2022-11-16T02:32:43.400Z,4.81
2022-11-16T02:35:15.918Z,4.72
2022-11-16T02:37:49.593Z,4.75
2022-11-16T02:40:20.532Z,4.72
2022-11-16T02:42:54.736Z,4.71
2022-11-16T02:45:28.219Z,4.72
2022-11-16T02:48:02.286Z,4.75
2022-11-16T02:50:33.453Z,4.74
2022-11-16T02:53:01.773Z,4.76
2022-11-16T02:55:33.642Z,4.79
2022-11-16T02:58:03.617Z,4.76
2022-11-16T03:00:43.420Z,4.75
2022-11-16T03:03:22.004Z,4.80
2022-11-16T03:05:54.435Z,4.80
2022-11-16T03:08:28.418Z,4.72
2022-11-16T03:11:16.960Z,4.73
2022-11-16T03:13:47.731Z,4.76
2022-11-16T03:16:24.008Z,4.76
2022-11-16T03:18:54.897Z,4.75
2022-11-16T03:21:29.892Z,4.76
2022-11-16T03:23:58.377Z,4.77
2022-11-16T03:26:35.390Z,4.78
2022-11-16T03:29:13.046Z,4.71
2022-11-16T03:31:49.621Z,4.70
2022-11-16T03:34:20.787Z,4.71
2022-11-16T03:36:51.433Z,4.73
2022-11-16T03:39:25.123Z,4.75
2022-11-16T03:41:54.429Z,4.78
2022-11-16T03:44:23.081Z,4.79
2022-11-16T03:46:52.838Z,4.80
2022-11-16T03:49:23.132Z,4.82
2022-11-16T03:51:51.777Z,4.84
2022-11-16T03:54:20.397Z,4.82
2022-11-16T03:56:49.201Z,4.80
2022-11-16T03:59:17.504Z,4.83
2022-11-16T04:01:45.847Z,4.84
2022-11-16T04:04:29.696Z,4.86
2022-11-16T04:07:15.309Z,4.87
2022-11-16T04:10:01.035Z,4.85
2022-11-16T04:12:46.749Z,4.87
2022-11-16T04:15:32.387Z,4.88
2022-11-16T04:18:18.060Z,4.95
2022-11-16T04:21:05.541Z,4.96
2022-11-16T04:23:51.318Z,5.00
2022-11-16T04:26:39.800Z,5.02
2022-11-16T04:29:07.201Z,5.05
2022-11-16T04:31:49.491Z,5.05
2022-11-16T04:34:35.358Z,5.04
2022-11-16T04:37:22.313Z,5.06
2022-11-16T04:39:50.661Z,5.10
2022-11-16T04:42:22.292Z,5.09
2022-11-16T04:45:13.978Z,5.14
2022-11-16T04:47:42.353Z,5.17
2022-11-16T04:50:11.186Z,5.17
2022-11-16T04:52:40.911Z,5.16
2022-11-16T04:55:10.933Z,5.15
2022-11-16T04:57:39.515Z,5.14
2022-11-16T05:00:09.317Z,5.16
2022-11-16T05:02:37.662Z,5.17
2022-11-16T05:05:06.745Z,5.19
2022-11-16T05:07:35.161Z,5.22
2022-11-16T05:10:07.037Z,5.25
2022-11-16T05:12:35.834Z,5.24
2022-11-16T05:15:04.920Z,5.26
2022-11-16T05:17:33.689Z,5.29
2022-11-16T05:20:19.630Z,5.33
2022-11-16T05:22:53.722Z,5.32
2022-11-16T05:25:23.443Z,5.33
2022-11-16T05:27:51.920Z,5.36
2022-11-16T05:30:20.549Z,5.39
2022-11-16T05:32:48.865Z,5.43
2022-11-16T05:35:17.392Z,5.45
2022-11-16T05:37:45.708Z,5.45
2022-11-16T05:40:14.178Z,5.49
2022-11-16T05:42:44.004Z,5.52
2022-11-16T05:45:14.922Z,5.52
2022-11-16T05:47:46.589Z,5.55
2022-11-16T05:50:14.784Z,5.57
2022-11-16T05:52:43.110Z,5.59
2022-11-16T05:55:11.424Z,5.64
2022-11-16T05:57:39.738Z,5.67
2022-11-16T06:00:11.105Z,5.68
2022-11-16T06:02:39.494Z,5.68
2022-11-16T06:05:08.356Z,5.68
2022-11-16T06:07:36.849Z,5.66
2022-11-16T06:10:05.901Z,5.65
2022-11-16T06:12:34.357Z,5.62
2022-11-16T06:15:02.673Z,5.64
2022-11-16T06:17:33.838Z,5.67
2022-11-16T06:20:02.182Z,5.70
2022-11-16T06:22:30.653Z,5.71
2022-11-16T06:24:58.983Z,5.71
2022-11-16T06:27:27.300Z,5.69
2022-11-16T06:29:55.596Z,5.69
2022-11-16T06:32:23.913Z,5.72
2022-11-16T06:34:54.604Z,5.75
2022-11-16T06:37:22.928Z,5.79
2022-11-16T06:39:51.297Z,5.77
2022-11-16T06:42:19.700Z,5.81
2022-11-16T06:44:48.096Z,5.82
2022-11-16T06:47:16.525Z,5.81
2022-11-16T06:49:45.492Z,5.84
2022-11-16T06:52:15.152Z,5.86
2022-11-16T06:54:43.478Z,5.84
2022-11-16T06:57:11.841Z,5.86
2022-11-16T06:59:40.152Z,5.81
2022-11-16T07:02:08.606Z,5.84
2022-11-16T07:04:37.116Z,5.83
2022-11-16T07:07:05.567Z,5.83
2022-11-16T07:09:35.345Z,5.83
2022-11-16T07:12:03.704Z,5.85
2022-11-16T07:14:32.039Z,5.85
2022-11-16T07:17:03.979Z,5.85
2022-11-16T07:19:36.745Z,5.88
2022-11-16T07:22:05.393Z,5.86
2022-11-16T07:24:35.081Z,5.87
2022-11-16T07:27:03.423Z,5.88
2022-11-16T07:29:31.721Z,5.89
2022-11-16T07:32:00.036Z,5.91
2022-11-16T07:35:23.385Z,5.90
2022-11-16T07:38:47.095Z,5.91
2022-11-16T07:41:19.509Z,5.91
2022-11-16T07:43:52.760Z,5.92
2022-11-16T07:46:46.470Z,5.91
2022-11-16T07:49:14.584Z,5.92
2022-11-16T07:51:43.204Z,5.87
2022-11-16T07:54:12.951Z,5.90
2022-11-16T07:56:42.886Z,5.89
2022-11-16T07:59:11.257Z,5.92
2022-11-16T08:01:39.879Z,5.93
2022-11-16T08:04:08.262Z,5.87
2022-11-16T08:06:36.580Z,5.87
2022-11-16T08:09:05.116Z,5.85
2022-11-16T08:11:33.492Z,5.82
2022-11-16T08:14:03.229Z,5.82
2022-11-16T08:16:33.212Z,5.80
2022-11-16T08:19:02.292Z,5.84
2022-11-16T08:21:30.654Z,5.86
2022-11-16T08:23:59.196Z,5.88
2022-11-16T08:26:28.213Z,5.85
2022-11-16T08:28:57.111Z,5.91
2022-11-16T08:31:29.249Z,5.90
2022-11-16T08:33:57.708Z,5.93
2022-11-16T08:36:26.123Z,5.95
2022-11-16T08:38:54.725Z,5.94
2022-11-16T08:41:23.401Z,5.96
2022-11-16T08:43:53.423Z,5.98
2022-11-16T08:46:22.708Z,5.99
2022-11-16T08:48:56.120Z,5.98
2022-11-16T08:51:25.600Z,5.97
2022-11-16T08:53:56.971Z,5.97
2022-11-16T08:56:27.137Z,5.98
2022-11-16T08:58:59.016Z,5.98
2022-11-16T09:01:29.777Z,5.98
2022-11-16T09:04:00.291Z,5.99
2022-11-16T09:06:28.774Z,6.00
2022-11-16T09:08:57.676Z,6.00
2022-11-16T09:11:27.218Z,6.04
2022-11-16T09:13:56.393Z,6.04
2022-11-16T09:16:26.562Z,6.07
2022-11-16T09:18:55.592Z,6.10
2022-11-16T09:21:27.022Z,6.11
2022-11-16T09:23:57.039Z,6.12
2022-11-16T09:26:26.269Z,6.12
2022-11-16T09:28:57.948Z,6.12
2022-11-16T09:31:27.925Z,6.12
2022-11-16T09:33:58.413Z,6.12
2022-11-16T09:36:29.510Z,6.12
2022-11-16T09:42:09.959Z,6.13
2022-11-16T09:44:50.749Z,6.13
2022-11-16T09:47:22.503Z,6.11
2022-11-16T09:49:57.004Z,6.09
2022-11-16T09:52:35.407Z,6.08
2022-11-16T09:55:20.397Z,6.09
2022-11-16T09:57:50.910Z,6.13
2022-11-16T10:00:23.593Z,6.17
2022-11-16T10:03:02.986Z,6.15
2022-11-16T10:05:38.218Z,6.16
2022-11-16T10:08:16.194Z,6.14
2022-11-16T10:10:53.709Z,6.13
2022-11-16T10:13:35.197Z,6.12
2022-11-16T10:16:11.263Z,6.10
2022-11-16T10:18:54.955Z,6.05
2022-11-16T10:21:42.629Z,6.07
2022-11-16T10:24:26.431Z,6.07
2022-11-16T10:27:07.697Z,6.09
2022-11-16T10:29:49.615Z,6.07
2022-11-16T10:32:26.003Z,6.09
2022-11-16T10:34:56.214Z,6.09
2022-11-16T10:37:31.457Z,6.09
2022-11-16T10:40:13.146Z,6.06
2022-11-16T10:42:41.469Z,6.06
2022-11-16T10:45:20.562Z,6.07
2022-11-16T10:47:53.368Z,6.06
2022-11-16T10:50:36.130Z,6.12
2022-11-16T10:53:04.754Z,6.11
2022-11-16T10:55:34.573Z,6.15
2022-11-16T10:58:04.588Z,6.15
2022-11-16T11:00:39.027Z,6.20
2022-11-16T11:03:07.778Z,6.18
2022-11-16T11:05:37.398Z,6.17
2022-11-16T11:08:07.336Z,6.17
2022-11-16T11:10:39.557Z,6.14
2022-11-16T11:13:23.526Z,6.14
2022-11-16T11:15:51.956Z,6.12
2022-11-16T11:18:27.671Z,6.12
2022-11-16T11:21:08.055Z,6.14
2022-11-16T11:23:43.581Z,6.13
2022-11-16T11:26:34.709Z,6.14
2022-11-16T11:29:17.998Z,6.08
2022-11-16T11:31:49.942Z,6.07
2022-11-16T11:34:22.066Z,6.04
2022-11-16T11:36:53.868Z,6.10
2022-11-16T11:39:33.611Z,6.12
2022-11-16T11:42:06.829Z,6.12
2022-11-16T11:44:49.166Z,6.11
2022-11-16T11:50:25.825Z,6.15
2022-11-16T11:53:08.451Z,6.18
2022-11-16T11:55:36.800Z,6.21
2022-11-16T11:58:08.531Z,6.19
2022-11-16T12:00:50.070Z,6.18
2022-11-16T12:03:52.362Z,6.17
2022-11-16T12:06:28.969Z,6.18
2022-11-16T12:09:28.560Z,6.17
2022-11-16T12:12:14.828Z,6.17
2022-11-16T12:15:00.139Z,6.17
2022-11-16T12:17:38.670Z,6.18
2022-11-16T12:20:21.825Z,6.16
2022-11-16T12:23:16.616Z,6.14
2022-11-16T12:25:54.266Z,6.11
2022-11-16T12:28:35.005Z,6.13
2022-11-16T12:31:28.340Z,6.13
2022-11-16T12:34:05.336Z,6.13
2022-11-16T12:36:41.656Z,6.14
2022-11-16T12:39:23.570Z,6.14
2022-11-16T12:42:21.435Z,6.17
2022-11-16T12:45:06.305Z,6.19
2022-11-16T12:47:50.819Z,6.19
2022-11-16T12:50:38.377Z,6.19
2022-11-16T12:53:21.481Z,6.20
2022-11-16T12:56:01.951Z,6.20
2022-11-16T12:58:47.760Z,6.21
2022-11-16T13:01:23.716Z,6.20
2022-11-16T13:03:57.423Z,6.21
2022-11-16T13:06:31.553Z,6.22
2022-11-16T13:09:04.658Z,6.22
2022-11-16T13:11:37.515Z,6.24
2022-11-16T13:14:09.041Z,6.25
2022-11-16T13:16:37.513Z,6.26
2022-11-16T13:19:11.254Z,6.29
2022-11-16T13:21:48.745Z,6.26
2022-11-16T13:24:28.216Z,6.29
2022-11-16T13:27:10.151Z,6.28
2022-11-16T13:29:44.326Z,6.28
2022-11-16T13:32:18.870Z,6.29
2022-11-16T13:34:49.881Z,6.31
2022-11-16T13:37:46.775Z,6.30
2022-11-16T13:40:25.316Z,6.30
2022-11-16T13:43:03.830Z,6.30
2022-11-16T13:45:37.000Z,6.31
2022-11-16T13:48:16.506Z,6.31
2022-11-16T13:50:52.208Z,6.31
2022-11-16T13:56:24.160Z,6.31
2022-11-16T13:58:58.486Z,6.33
2022-11-16T14:01:27.818Z,6.33
2022-11-16T14:04:36.952Z,6.36
2022-11-16T14:07:28.220Z,6.33
2022-11-16T14:09:56.909Z,6.30
2022-11-16T14:12:58.415Z,6.30
2022-11-16T14:15:34.837Z,6.30
2022-11-16T14:18:38.059Z,6.32
2022-11-16T14:21:21.832Z,6.35
2022-11-16T14:24:10.501Z,6.34
2022-11-16T14:26:47.280Z,6.36
2022-11-16T14:29:32.396Z,6.39
2022-11-16T14:32:03.949Z,6.40
2022-11-16T14:34:40.915Z,6.40
2022-11-16T14:37:14.026Z,6.42
2022-11-16T14:39:44.905Z,6.41
2022-11-16T14:42:18.930Z,6.40
2022-11-16T14:44:48.581Z,6.40
2022-11-16T14:47:25.065Z,6.40
2022-11-16T14:49:53.975Z,6.40
2022-11-16T14:52:29.949Z,6.40
2022-11-16T14:55:02.724Z,6.42
2022-11-16T14:57:31.025Z,6.42
2022-11-16T15:00:12.045Z,6.41
2022-11-16T15:02:41.167Z,6.41
2022-11-16T15:05:16.832Z,6.44
2022-11-16T15:07:46.368Z,6.43
2022-11-16T15:10:19.702Z,6.40
2022-11-16T15:12:51.590Z,6.39
2022-11-16T15:15:24.038Z,6.39
2022-11-16T15:18:07.034Z,6.37
2022-11-16T15:20:37.561Z,6.37
2022-11-16T15:23:14.212Z,6.37
2022-11-16T15:25:46.238Z,6.35
2022-11-16T15:28:17.577Z,6.34
2022-11-16T15:30:49.068Z,6.35
2022-11-16T15:33:19.990Z,6.33
2022-11-16T15:35:48.338Z,6.31
2022-11-16T15:38:20.172Z,6.31
2022-11-16T15:40:51.811Z,6.25
2022-11-16T15:43:22.456Z,6.24
2022-11-16T15:45:51.484Z,6.22
2022-11-16T15:48:23.231Z,6.19
2022-11-16T15:51:04.272Z,6.20
2022-11-16T15:53:38.826Z,6.18
2022-11-16T15:56:13.197Z,6.17
2022-11-16T15:58:42.127Z,6.17
2022-11-16T16:01:11.930Z,6.14
2022-11-16T16:03:45.996Z,6.15
2022-11-16T16:06:16.720Z,6.17
2022-11-16T16:08:45.137Z,6.20
2022-11-16T16:11:29.448Z,6.17
2022-11-16T16:14:00.022Z,6.21
2022-11-16T16:16:32.413Z,6.22
2022-11-16T16:19:09.336Z,6.22
2022-11-16T16:21:43.962Z,6.23
2022-11-16T16:24:41.170Z,6.24
2022-11-16T16:27:19.174Z,6.26
2022-11-16T16:29:48.826Z,6.25
2022-11-16T16:32:24.553Z,6.24
2022-11-16T16:34:53.442Z,6.23
2022-11-16T16:37:22.395Z,6.23
2022-11-16T16:39:50.685Z,6.28
2022-11-16T16:42:20.538Z,6.24
2022-11-16T16:44:49.287Z,6.24
2022-11-16T16:47:20.731Z,6.21
2022-11-16T16:49:49.270Z,6.21
2022-11-16T16:52:18.057Z,6.21
2022-11-16T16:54:46.964Z,6.20
2022-11-16T16:57:16.204Z,6.19
2022-11-16T16:59:48.267Z,6.17
2022-11-16T17:02:17.546Z,6.20
2022-11-16T17:04:46.837Z,6.22
2022-11-16T17:07:15.681Z,6.22
2022-11-16T17:09:44.307Z,6.22
2022-11-16T17:12:12.771Z,6.21
2022-11-16T17:14:41.058Z,6.21
2022-11-16T17:17:10.755Z,6.23
2022-11-16T17:19:39.130Z,6.22
2022-11-16T17:22:07.564Z,6.21
2022-11-16T17:24:36.028Z,6.23
2022-11-16T17:27:04.477Z,6.23
2022-11-16T17:29:32.965Z,6.24
2022-11-16T17:32:01.564Z,6.21
2022-11-16T17:34:31.751Z,6.19
2022-11-16T17:37:00.131Z,6.14
2022-11-16T17:39:28.491Z,6.12
2022-11-16T17:41:56.837Z,6.12
2022-11-16T17:44:26.589Z,6.13
2022-11-16T17:46:54.986Z,6.13
2022-11-16T17:49:23.322Z,6.14
2022-11-16T17:51:53.021Z,6.14
2022-11-16T17:54:21.393Z,6.15
2022-11-16T17:56:49.868Z,6.13
2022-11-16T17:59:18.219Z,6.13
2022-11-16T18:01:46.615Z,6.12
2022-11-16T18:04:15.345Z,6.11
2022-11-16T18:06:43.686Z,6.11
2022-11-16T18:09:13.441Z,6.10
2022-11-16T18:11:41.833Z,6.08
2022-11-16T18:14:10.668Z,6.08
2022-11-16T18:16:41.082Z,6.07
2022-11-16T18:19:09.970Z,6.07
2022-11-16T18:21:40.791Z,6.06
2022-11-16T18:24:10.303Z,6.05
2022-11-16T18:26:41.632Z,6.09
2022-11-16T18:29:12.230Z,6.07
2022-11-16T18:31:41.099Z,6.06
2022-11-16T18:34:09.548Z,6.06
2022-11-16T18:36:37.873Z,6.05
2022-11-16T18:39:06.814Z,6.04
2022-11-16T18:41:35.409Z,6.03
2022-11-16T18:44:06.321Z,5.99
2022-11-16T18:46:34.674Z,5.96
2022-11-16T18:49:03.088Z,5.96
2022-11-16T18:51:31.968Z,5.97
2022-11-16T18:54:00.250Z,5.98
2022-11-16T18:56:28.629Z,5.99
2022-11-16T18:58:56.969Z,5.98
2022-11-16T19:01:27.745Z,6.02
2022-11-16T19:03:57.391Z,5.99
2022-11-16T19:06:25.759Z,5.99
2022-11-16T19:08:59.384Z,5.99
2022-11-16T19:11:29.344Z,5.97
2022-11-16T19:14:01.094Z,5.98
2022-11-16T19:16:31.525Z,5.99
2022-11-16T19:19:01.461Z,5.98
2022-11-16T19:21:30.445Z,5.95
2022-11-16T19:23:58.929Z,5.92
2022-11-16T19:26:28.647Z,5.93
2022-11-16T19:28:56.979Z,5.92
2022-11-16T19:31:27.417Z,5.89
2022-11-16T19:33:58.034Z,5.91
2022-11-16T19:36:27.544Z,5.93
2022-11-16T19:38:56.192Z,5.93
2022-11-16T19:41:25.544Z,5.91
2022-11-16T19:43:57.254Z,5.90
2022-11-16T19:46:27.046Z,5.90
2022-11-16T19:48:57.570Z,5.89
2022-11-16T19:51:28.108Z,5.92
2022-11-16T19:53:57.428Z,5.87
2022-11-16T19:56:28.065Z,5.83
2022-11-16T19:58:56.690Z,5.82
2022-11-16T20:01:27.985Z,5.85
2022-11-16T20:03:59.281Z,5.82
2022-11-16T20:06:29.398Z,5.82
2022-11-16T20:09:00.551Z,5.83
2022-11-16T20:11:31.130Z,5.83
2022-11-16T20:13:59.702Z,5.83
2022-11-16T20:16:37.030Z,5.84
2022-11-16T20:19:09.923Z,5.85
2022-11-16T20:21:40.196Z,5.82
2022-11-16T20:24:12.207Z,5.81
2022-11-16T20:26:43.199Z,5.82
2022-11-16T20:29:12.505Z,5.78
2022-11-16T20:31:42.791Z,5.78
2022-11-16T20:34:14.857Z,5.78
2022-11-16T20:36:44.697Z,5.76
2022-11-16T20:39:17.497Z,5.74
2022-11-16T20:41:47.681Z,5.69
2022-11-16T20:44:21.076Z,5.68
2022-11-16T20:46:50.587Z,5.65
2022-11-16T20:49:20.784Z,5.63
2022-11-16T20:51:50.453Z,5.62
2022-11-16T20:54:18.979Z,5.55
2022-11-16T20:56:51.532Z,5.52
2022-11-16T20:59:20.257Z,5.49
2022-11-16T21:01:49.019Z,5.50
2022-11-16T21:04:17.755Z,5.52
2022-11-16T21:06:47.868Z,5.50
2022-11-16T21:09:22.441Z,5.51
2022-11-16T21:12:08.538Z,5.45
2022-11-16T21:14:37.214Z,5.44
2022-11-16T21:17:05.654Z,5.44
2022-11-16T21:19:34.109Z,5.40
2022-11-16T21:22:03.825Z,5.44
2022-11-16T21:24:32.202Z,5.46
2022-11-16T21:27:00.599Z,5.44
2022-11-16T21:29:28.988Z,5.40
2022-11-16T21:31:57.384Z,5.40
2022-11-16T21:34:27.795Z,5.38
2022-11-16T21:36:56.128Z,5.35
2022-11-16T21:39:25.816Z,5.34
2022-11-16T21:41:54.142Z,5.32
2022-11-16T21:44:22.486Z,5.28
2022-11-16T21:46:50.766Z,5.29
2022-11-16T21:49:19.086Z,5.29
2022-11-16T21:51:47.377Z,5.26
2022-11-16T21:54:15.692Z,5.23
2022-11-16T21:56:45.358Z,5.24
2022-11-16T21:59:13.671Z,5.24
2022-11-16T22:01:55.877Z,5.23
2022-11-16T22:04:38.486Z,5.22
2022-11-16T22:07:24.076Z,5.22
2022-11-16T22:09:52.397Z,5.18
2022-11-16T22:12:22.102Z,5.15
2022-11-16T22:14:50.514Z,5.13
2022-11-16T22:17:19.068Z,5.12
2022-11-16T22:19:47.510Z,5.16
2022-11-16T22:22:15.825Z,5.16
2022-11-16T22:24:44.176Z,5.15
2022-11-16T22:27:12.532Z,5.11
2022-11-16T22:29:42.349Z,5.06
2022-11-16T22:32:11.100Z,4.99
2022-11-16T22:34:39.432Z,4.99
2022-11-16T22:37:07.756Z,4.95
2022-11-16T22:39:36.652Z,4.92
2022-11-16T22:42:05.698Z,4.91
2022-11-16T22:44:34.101Z,4.92
2022-11-16T22:47:03.870Z,4.90
2022-11-16T22:49:32.206Z,4.88
2022-11-16T22:52:00.517Z,4.86
2022-11-16T22:54:30.153Z,4.85
2022-11-16T22:56:58.437Z,4.84
2022-11-16T22:59:26.742Z,4.83
2022-11-16T23:01:55.055Z,4.84
2022-11-16T23:04:25.253Z,4.83
2022-11-16T23:06:53.599Z,4.83
2022-11-16T23:09:21.903Z,4.78
2022-11-16T23:12:07.138Z,4.77
2022-11-16T23:14:53.131Z,4.76
2022-11-16T23:17:21.568Z,4.75
2022-11-16T23:20:13.334Z,4.68
2022-11-16T23:23:02.325Z,4.59
2022-11-16T23:25:47.885Z,4.52
2022-11-16T23:28:18.292Z,4.47
2022-11-16T23:30:46.679Z,4.47
2022-11-16T23:33:15.285Z,4.45
2022-11-16T23:35:44.995Z,4.39
2022-11-16T23:38:13.341Z,4.34
2022-11-16T23:40:41.640Z,4.30
2022-11-16T23:43:28.429Z,4.27
2022-11-16T23:45:56.771Z,4.32
2022-11-16T23:48:25.156Z,4.34
2022-11-16T23:50:54.789Z,4.33
2022-11-16T23:53:23.070Z,4.30
2022-11-16T23:55:51.471Z,4.29
2022-11-16T23:58:19.783Z,4.32
